createdAt,value
2023-01-07T00:00:11.273Z,101481.27
2023-01-07T00:01:39.995Z,101477.36
2023-01-07T00:02:43.420Z,101480.05
2023-01-07T00:03:48.247Z,101476.80
2023-01-07T00:04:52.444Z,101477.42
2023-01-07T00:06:02.769Z,101479.66
2023-01-07T00:07:05.943Z,101481.06
2023-01-07T00:08:09.033Z,101479.56
2023-01-07T00:09:14.742Z,101482.01
2023-01-07T00:10:18.369Z,101481.38
2023-01-07T00:11:25.490Z,101482.77
2023-01-07T00:12:29.149Z,101486.16
2023-01-07T00:13:33.326Z,101483.67
2023-01-07T00:14:41.566Z,101482.27
2023-01-07T00:15:47.175Z,101486.25
2023-01-07T00:16:50.116Z,101487.20
2023-01-07T00:17:53.061Z,101483.61
2023-01-07T00:18:57.896Z,101486.62
2023-01-07T00:20:00.982Z,101486.26
2023-01-07T00:21:06.924Z,101489.45
2023-01-07T00:22:10.000Z,101487.15
2023-01-07T00:23:13.132Z,101492.11
2023-01-07T00:24:18.297Z,101493.67
2023-01-07T00:25:21.970Z,101490.34
2023-01-07T00:26:29.374Z,101493.02
2023-01-07T00:27:32.531Z,101487.86
2023-01-07T00:28:37.790Z,101491.88
2023-01-07T00:29:41.211Z,101491.68
2023-01-07T00:30:44.923Z,101488.23
2023-01-07T00:31:48.175Z,101488.36
2023-01-07T00:33:00.350Z,101489.66
2023-01-07T00:34:03.586Z,101492.79
2023-01-07T00:35:21.505Z,101495.02
2023-01-07T00:36:28.223Z,101496.89
2023-01-07T00:37:49.946Z,101495.95
2023-01-07T00:39:01.240Z,101492.86
2023-01-07T00:40:04.658Z,101493.83
2023-01-07T00:41:07.732Z,101495.05
2023-01-07T00:42:30.863Z,101495.41
2023-01-07T00:43:34.770Z,101496.52
2023-01-07T00:44:38.162Z,101495.98
2023-01-07T00:45:41.641Z,101494.70
2023-01-07T00:46:44.728Z,101490.56
2023-01-07T00:47:48.149Z,101496.91
2023-01-07T00:48:51.585Z,101494.42
2023-01-07T00:49:54.651Z,101496.34
2023-01-07T00:50:57.860Z,101495.95
2023-01-07T00:52:00.852Z,101495.91
2023-01-07T00:53:04.867Z,101500.59
2023-01-07T00:54:07.833Z,101499.80
2023-01-07T00:55:12.357Z,101505.58
2023-01-07T00:56:19.116Z,101504.23
2023-01-07T00:57:22.322Z,101501.80
2023-01-07T00:58:26.465Z,101502.40
2023-01-07T00:59:29.717Z,101505.02
2023-01-07T01:00:33.318Z,101504.10
2023-01-07T01:01:37.921Z,101508.82
2023-01-07T01:02:41.080Z,101509.88
2023-01-07T01:03:44.221Z,101512.61
2023-01-07T01:04:47.391Z,101510.94
2023-01-07T01:05:51.289Z,101513.59
2023-01-07T01:06:54.491Z,101509.77
2023-01-07T01:07:58.060Z,101509.63
2023-01-07T01:09:01.117Z,101511.71
2023-01-07T01:10:06.465Z,101516.65
2023-01-07T01:11:11.038Z,101520.48
2023-01-07T01:12:14.133Z,101526.07
2023-01-07T01:13:18.559Z,101527.67
2023-01-07T01:14:21.708Z,101523.45
2023-01-07T01:15:25.045Z,101525.28
2023-01-07T01:16:28.216Z,101529.89
2023-01-07T01:17:31.658Z,101525.38
2023-01-07T01:18:34.640Z,101529.29
2023-01-07T01:19:37.925Z,101527.75
2023-01-07T01:20:41.723Z,101525.41
2023-01-07T01:21:44.876Z,101523.52
2023-01-07T01:22:48.246Z,101524.26
2023-01-07T01:23:51.614Z,101519.89
2023-01-07T01:24:55.172Z,101519.38
2023-01-07T01:26:06.260Z,101519.12
2023-01-07T01:27:09.250Z,101514.76
2023-01-07T01:28:12.570Z,101511.35
2023-01-07T01:29:16.125Z,101512.13
2023-01-07T01:30:19.264Z,101513.38
2023-01-07T01:31:22.235Z,101516.40
2023-01-07T01:32:27.682Z,101515.48
2023-01-07T01:33:31.247Z,101523.28
2023-01-07T01:34:34.313Z,101526.19
2023-01-07T01:35:41.480Z,101525.52
2023-01-07T01:36:44.865Z,101524.14
2023-01-07T01:37:48.061Z,101526.26
2023-01-07T01:38:51.191Z,101524.73
2023-01-07T01:39:54.332Z,101522.81
2023-01-07T01:40:57.358Z,101519.59
2023-01-07T01:42:00.575Z,101520.63
2023-01-07T01:43:03.853Z,101521.55
2023-01-07T01:44:28.591Z,101524.92
2023-01-07T01:45:33.401Z,101534.63
2023-01-07T01:46:39.843Z,101533.45
2023-01-07T01:47:57.676Z,101534.42
2023-01-07T01:49:25.750Z,101537.74
2023-01-07T01:50:44.018Z,101542.00
2023-01-07T01:51:57.175Z,101544.77
2023-01-07T01:53:12.628Z,101544.19
2023-01-07T01:54:19.619Z,101539.04
2023-01-07T01:55:30.597Z,101542.48
2023-01-07T01:56:38.210Z,101543.05
2023-01-07T01:57:41.892Z,101546.77
2023-01-07T01:58:52.917Z,101548.57
2023-01-07T01:59:57.502Z,101550.80
2023-01-07T02:01:02.579Z,101553.26
2023-01-07T02:02:07.659Z,101546.83
2023-01-07T02:03:16.648Z,101554.17
2023-01-07T02:04:22.215Z,101554.13
2023-01-07T02:05:35.273Z,101543.51
2023-01-07T02:06:44.841Z,101547.20
2023-01-07T02:07:47.842Z,101545.40
2023-01-07T02:08:52.442Z,101543.95
2023-01-07T02:10:17.966Z,101543.42
2023-01-07T02:11:33.470Z,101549.75
2023-01-07T02:12:57.257Z,101547.14
2023-01-07T02:14:20.100Z,101555.52
2023-01-07T02:15:42.277Z,101555.59
2023-01-07T02:17:03.085Z,101552.52
2023-01-07T02:18:24.780Z,101554.55
2023-01-07T02:20:05.136Z,101553.30
2023-01-07T02:21:37.252Z,101551.31
2023-01-07T02:23:11.087Z,101551.27
2023-01-07T02:24:20.155Z,101553.20
2023-01-07T02:25:34.607Z,101550.88
2023-01-07T02:26:59.982Z,101548.44
2023-01-07T02:28:32.348Z,101546.89
2023-01-07T02:30:13.820Z,101543.75
2023-01-07T02:31:55.898Z,101544.39
2023-01-07T02:33:18.453Z,101543.17
2023-01-07T02:34:27.869Z,101541.86
2023-01-07T02:35:49.401Z,101535.52
2023-01-07T02:36:52.545Z,101536.43
2023-01-07T02:38:13.276Z,101534.55
2023-01-07T02:39:30.364Z,101535.85
2023-01-07T02:40:44.205Z,101536.00
2023-01-07T02:42:09.048Z,101534.42
2023-01-07T02:43:34.765Z,101542.71
2023-01-07T02:45:02.458Z,101538.58
2023-01-07T02:46:11.042Z,101536.77
2023-01-07T02:47:32.059Z,101537.95
2023-01-07T02:48:38.167Z,101538.73
2023-01-07T02:49:41.693Z,101538.02
2023-01-07T02:50:44.945Z,101543.05
2023-01-07T02:51:51.963Z,101547.20
2023-01-07T02:52:55.135Z,101553.11
2023-01-07T02:53:58.585Z,101551.96
2023-01-07T02:55:12.359Z,101548.88
2023-01-07T02:56:38.693Z,101553.11
2023-01-07T02:57:53.652Z,101551.65
2023-01-07T02:59:31.894Z,101553.18
2023-01-07T03:01:04.829Z,101556.27
2023-01-07T03:02:35.448Z,101553.27
2023-01-07T03:04:06.290Z,101559.88
2023-01-07T03:05:34.048Z,101563.70
2023-01-07T03:06:49.122Z,101560.65
2023-01-07T03:08:21.059Z,101560.10
2023-01-07T03:10:15.346Z,101561.46
2023-01-07T03:11:26.422Z,101559.68
2023-01-07T03:12:41.074Z,101561.98
2023-01-07T03:14:14.437Z,101560.67
2023-01-07T03:15:25.142Z,101563.67
2023-01-07T03:16:34.497Z,101565.18
2023-01-07T03:17:52.370Z,101561.59
2023-01-07T03:19:05.567Z,101566.82
2023-01-07T03:20:10.135Z,101569.88
2023-01-07T03:21:17.357Z,101569.31
2023-01-07T03:22:27.983Z,101571.52
2023-01-07T03:23:31.624Z,101571.38
2023-01-07T03:24:53.466Z,101570.41
2023-01-07T03:26:01.412Z,101569.67
2023-01-07T03:27:07.209Z,101572.33
2023-01-07T03:28:13.812Z,101576.59
2023-01-07T03:29:20.118Z,101577.61
2023-01-07T03:30:25.206Z,101573.67
2023-01-07T03:31:30.821Z,101574.67
2023-01-07T03:32:41.589Z,101573.30
2023-01-07T03:34:07.645Z,101578.44
2023-01-07T03:35:11.593Z,101579.06
2023-01-07T03:36:17.500Z,101579.45
2023-01-07T03:37:24.664Z,101585.14
2023-01-07T03:38:29.135Z,101587.89
2023-01-07T03:39:37.128Z,101586.23
2023-01-07T03:40:41.397Z,101582.62
2023-01-07T03:42:06.332Z,101585.21
2023-01-07T03:43:17.928Z,101584.80
2023-01-07T03:44:21.027Z,101585.49
2023-01-07T03:45:26.392Z,101589.15
2023-01-07T03:46:33.406Z,101590.91
2023-01-07T03:47:41.556Z,101584.40
2023-01-07T03:48:44.603Z,101584.48
2023-01-07T03:49:47.777Z,101582.36
2023-01-07T03:50:50.918Z,101581.00
2023-01-07T03:51:54.764Z,101579.27
2023-01-07T03:52:58.400Z,101579.94
2023-01-07T03:54:02.067Z,101579.38
2023-01-07T03:55:06.054Z,101582.33
2023-01-07T03:56:09.144Z,101578.91
2023-01-07T03:57:12.221Z,101582.25
2023-01-07T03:58:15.254Z,101584.11
2023-01-07T03:59:18.448Z,101586.66
2023-01-07T04:00:21.691Z,101585.40
2023-01-07T04:01:29.356Z,101585.50
2023-01-07T04:02:32.700Z,101585.73
2023-01-07T04:03:35.887Z,101592.34
2023-01-07T04:04:39.112Z,101594.21
2023-01-07T04:05:42.143Z,101596.80
2023-01-07T04:06:45.179Z,101598.42
2023-01-07T04:07:48.473Z,101602.88
2023-01-07T04:08:51.520Z,101601.48
2023-01-07T04:09:54.691Z,101601.60
2023-01-07T04:10:57.706Z,101601.88
2023-01-07T04:12:01.006Z,101603.97
2023-01-07T04:13:04.193Z,101603.60
2023-01-07T04:14:07.598Z,101602.05
2023-01-07T04:15:11.139Z,101603.77
2023-01-07T04:16:14.389Z,101602.41
2023-01-07T04:17:17.741Z,101604.81
2023-01-07T04:18:20.725Z,101603.55
2023-01-07T04:19:23.995Z,101602.79
2023-01-07T04:20:27.068Z,101602.13
2023-01-07T04:21:32.721Z,101604.04
2023-01-07T04:22:35.816Z,101601.22
2023-01-07T04:23:38.929Z,101604.27
2023-01-07T04:24:42.563Z,101608.08
2023-01-07T04:25:49.698Z,101607.36
2023-01-07T04:26:55.639Z,101607.37
2023-01-07T04:27:59.569Z,101610.81
2023-01-07T04:29:02.815Z,101610.88
2023-01-07T04:30:06.807Z,101607.66
2023-01-07T04:31:10.489Z,101611.25
2023-01-07T04:32:13.794Z,101612.05
2023-01-07T04:33:17.572Z,101608.38
2023-01-07T04:34:21.750Z,101610.61
2023-01-07T04:35:24.969Z,101610.52
2023-01-07T04:36:28.811Z,101609.61
2023-01-07T04:37:31.905Z,101611.90
2023-01-07T04:38:35.789Z,101611.48
2023-01-07T04:39:41.210Z,101613.68
2023-01-07T04:40:45.104Z,101610.23
2023-01-07T04:41:49.205Z,101610.65
2023-01-07T04:42:52.725Z,101609.25
2023-01-07T04:43:56.141Z,101608.82
2023-01-07T04:44:59.446Z,101611.64
2023-01-07T04:46:03.730Z,101607.40
2023-01-07T04:47:07.127Z,101604.57
2023-01-07T04:48:10.360Z,101602.70
2023-01-07T04:49:13.313Z,101602.40
2023-01-07T04:50:16.859Z,101602.77
2023-01-07T04:51:20.425Z,101603.23
2023-01-07T04:52:24.546Z,101601.50
2023-01-07T04:53:29.762Z,101601.69
2023-01-07T04:54:34.916Z,101601.57
2023-01-07T04:55:38.925Z,101600.80
2023-01-07T04:56:42.372Z,101602.48
2023-01-07T04:57:45.642Z,101601.71
2023-01-07T04:58:48.956Z,101604.06
2023-01-07T04:59:52.112Z,101605.53
2023-01-07T05:00:58.597Z,101604.14
2023-01-07T05:02:02.270Z,101605.54
2023-01-07T05:03:05.841Z,101604.39
2023-01-07T05:04:09.388Z,101605.76
2023-01-07T05:05:13.438Z,101606.14
2023-01-07T05:06:16.969Z,101603.85
2023-01-07T05:07:19.969Z,101605.13
2023-01-07T05:08:24.817Z,101602.14
2023-01-07T05:09:29.929Z,101599.14
2023-01-07T05:10:33.750Z,101600.95
2023-01-07T05:11:37.258Z,101596.77
2023-01-07T05:12:40.579Z,101599.19
2023-01-07T05:13:45.278Z,101603.89
2023-01-07T05:14:48.914Z,101601.91
2023-01-07T05:15:52.134Z,101600.85
2023-01-07T05:16:55.645Z,101603.96
2023-01-07T05:18:00.299Z,101606.94
2023-01-07T05:19:07.447Z,101601.72
2023-01-07T05:20:13.748Z,101604.30
2023-01-07T05:21:18.175Z,101598.86
2023-01-07T05:22:21.585Z,101598.89
2023-01-07T05:23:24.907Z,101605.16
2023-01-07T05:24:28.332Z,101603.88
2023-01-07T05:25:32.620Z,101609.31
2023-01-07T05:26:35.723Z,101609.59
2023-01-07T05:27:39.680Z,101606.68
2023-01-07T05:28:43.986Z,101608.69
2023-01-07T05:29:47.087Z,101613.55
2023-01-07T05:30:50.187Z,101609.46
2023-01-07T05:31:53.211Z,101610.27
2023-01-07T05:32:56.417Z,101610.33
2023-01-07T05:34:00.305Z,101608.90
2023-01-07T05:35:04.831Z,101616.81
2023-01-07T05:36:08.344Z,101615.18
2023-01-07T05:37:11.459Z,101618.40
2023-01-07T05:38:15.251Z,101617.47
2023-01-07T05:39:19.099Z,101618.98
2023-01-07T05:40:22.378Z,101620.34
2023-01-07T05:41:25.516Z,101617.39
2023-01-07T05:42:28.689Z,101619.27
2023-01-07T05:43:31.989Z,101622.49
2023-01-07T05:44:34.966Z,101620.75
2023-01-07T05:45:38.060Z,101619.70
2023-01-07T05:46:41.107Z,101617.67
2023-01-07T05:47:44.216Z,101614.79
2023-01-07T05:48:47.549Z,101616.29
2023-01-07T05:49:50.513Z,101613.77
2023-01-07T05:50:53.525Z,101614.39
2023-01-07T05:51:56.747Z,101614.13
2023-01-07T05:52:59.792Z,101614.73
2023-01-07T05:54:02.962Z,101617.11
2023-01-07T05:55:07.090Z,101620.04
2023-01-07T05:56:10.050Z,101624.27
2023-01-07T05:57:13.105Z,101626.87
2023-01-07T05:58:16.157Z,101629.60
2023-01-07T05:59:19.183Z,101630.86
2023-01-07T06:00:22.276Z,101635.08
2023-01-07T06:01:25.349Z,101637.17
2023-01-07T06:02:28.534Z,101640.22
2023-01-07T06:03:31.879Z,101641.49
2023-01-07T06:04:34.914Z,101636.75
2023-01-07T06:05:39.156Z,101639.21
2023-01-07T06:06:42.337Z,101638.58
2023-01-07T06:07:45.980Z,101640.29
2023-01-07T06:08:48.969Z,101641.73
2023-01-07T06:09:52.055Z,101639.13
2023-01-07T06:10:54.996Z,101640.69
2023-01-07T06:11:57.976Z,101640.86
2023-01-07T06:13:02.211Z,101639.69
2023-01-07T06:14:05.211Z,101643.35
2023-01-07T06:15:08.664Z,101641.23
2023-01-07T06:16:13.841Z,101641.11
2023-01-07T06:17:16.981Z,101640.52
2023-01-07T06:18:19.937Z,101643.11
2023-01-07T06:19:23.286Z,101643.00
2023-01-07T06:20:26.276Z,101644.40
2023-01-07T06:21:29.332Z,101646.20
2023-01-07T06:22:32.499Z,101648.98
2023-01-07T06:23:35.720Z,101651.09
2023-01-07T06:24:38.645Z,101652.79
2023-01-07T06:25:41.565Z,101655.57
2023-01-07T06:26:44.520Z,101654.89
2023-01-07T06:27:47.577Z,101656.13
2023-01-07T06:28:53.114Z,101659.73
2023-01-07T06:29:56.147Z,101662.04
2023-01-07T06:30:59.291Z,101661.14
2023-01-07T06:32:05.760Z,101663.64
2023-01-07T06:33:08.752Z,101664.52
2023-01-07T06:34:11.896Z,101664.06
2023-01-07T06:35:15.098Z,101662.18
2023-01-07T06:36:18.107Z,101661.20
2023-01-07T06:37:21.148Z,101664.19
2023-01-07T06:38:24.203Z,101665.48
2023-01-07T06:39:27.387Z,101663.20
2023-01-07T06:40:30.382Z,101666.70
2023-01-07T06:41:33.793Z,101663.95
2023-01-07T06:42:36.935Z,101665.85
2023-01-07T06:43:40.168Z,101664.61
2023-01-07T06:44:43.385Z,101665.80
2023-01-07T06:45:46.426Z,101662.42
2023-01-07T06:46:49.433Z,101669.44
2023-01-07T06:47:52.757Z,101668.33
2023-01-07T06:48:56.019Z,101669.73
2023-01-07T06:49:58.999Z,101673.38
2023-01-07T06:51:02.115Z,101673.11
2023-01-07T06:52:05.197Z,101670.94
2023-01-07T06:53:08.288Z,101669.73
2023-01-07T06:54:11.373Z,101668.47
2023-01-07T06:55:14.334Z,101671.73
2023-01-07T06:56:17.355Z,101672.50
2023-01-07T06:57:20.288Z,101677.86
2023-01-07T06:58:23.281Z,101678.56
2023-01-07T06:59:26.497Z,101680.27
2023-01-07T07:00:29.717Z,101680.52
2023-01-07T07:01:32.911Z,101678.03
2023-01-07T07:02:36.083Z,101684.80
2023-01-07T07:03:39.352Z,101684.07
2023-01-07T07:04:42.549Z,101681.71
2023-01-07T07:05:46.731Z,101683.87
2023-01-07T07:06:49.672Z,101681.73
2023-01-07T07:07:53.072Z,101681.94
2023-01-07T07:08:56.058Z,101680.30
2023-01-07T07:09:59.164Z,101679.40
2023-01-07T07:11:02.236Z,101678.48
2023-01-07T07:12:05.779Z,101680.70
2023-01-07T07:13:08.771Z,101680.22
2023-01-07T07:14:12.344Z,101677.40
2023-01-07T07:15:15.352Z,101677.86
2023-01-07T07:16:18.446Z,101677.69
2023-01-07T07:17:21.458Z,101678.80
2023-01-07T07:18:24.766Z,101677.13
2023-01-07T07:19:27.830Z,101676.30
2023-01-07T07:20:30.785Z,101676.30
2023-01-07T07:21:33.732Z,101677.99
2023-01-07T07:22:36.830Z,101678.39
2023-01-07T07:23:39.834Z,101679.70
2023-01-07T07:24:44.127Z,101682.41
2023-01-07T07:25:47.229Z,101677.66
2023-01-07T07:26:50.715Z,101681.97
2023-01-07T07:27:53.888Z,101683.60
2023-01-07T07:28:57.695Z,101686.25
2023-01-07T07:30:00.693Z,101689.88
2023-01-07T07:31:04.400Z,101689.17
2023-01-07T07:32:07.755Z,101693.30
2023-01-07T07:33:12.612Z,101694.70
2023-01-07T07:34:15.627Z,101693.30
2023-01-07T07:35:18.861Z,101694.54
2023-01-07T07:36:21.905Z,101696.30
2023-01-07T07:37:24.868Z,101699.80
2023-01-07T07:38:28.049Z,101702.97
2023-01-07T07:39:31.160Z,101701.71
2023-01-07T07:40:34.264Z,101702.01
2023-01-07T07:41:37.481Z,101702.27
2023-01-07T07:43:10.191Z,101703.80
2023-01-07T07:44:07.183Z,101707.80
2023-01-07T07:45:10.726Z,101704.47
2023-01-07T07:46:14.256Z,101705.41
2023-01-07T07:47:17.442Z,101703.08
2023-01-07T07:48:20.461Z,101706.17
2023-01-07T07:49:24.481Z,101706.61
2023-01-07T07:50:27.694Z,101704.45
2023-01-07T07:51:30.942Z,101708.73
2023-01-07T07:52:34.026Z,101704.60
2023-01-07T07:53:37.341Z,101704.29
2023-01-07T07:54:40.989Z,101703.23
2023-01-07T07:55:44.376Z,101705.05
2023-01-07T07:56:47.577Z,101705.08
2023-01-07T07:57:56.436Z,101711.66
2023-01-07T07:58:59.546Z,101711.72
2023-01-07T08:00:04.886Z,101710.99
2023-01-07T08:01:15.668Z,101707.69
2023-01-07T08:02:21.134Z,101709.54
2023-01-07T08:03:24.496Z,101708.89
2023-01-07T08:04:34.126Z,101705.95
2023-01-07T08:05:41.987Z,101709.95
2023-01-07T08:06:45.070Z,101708.91
2023-01-07T08:07:48.241Z,101712.65
2023-01-07T08:08:51.291Z,101715.33
2023-01-07T08:09:54.465Z,101717.67
2023-01-07T08:10:57.776Z,101719.48
2023-01-07T08:12:00.841Z,101722.50
2023-01-07T08:13:04.508Z,101722.66
2023-01-07T08:14:07.629Z,101725.34
2023-01-07T08:15:10.950Z,101723.27
2023-01-07T08:16:14.112Z,101725.06
2023-01-07T08:17:17.230Z,101726.48
2023-01-07T08:18:20.362Z,101726.89
2023-01-07T08:19:23.752Z,101727.63
2023-01-07T08:20:27.853Z,101727.59
2023-01-07T08:21:31.351Z,101725.64
2023-01-07T08:22:34.998Z,101724.54
2023-01-07T08:23:38.121Z,101725.63
2023-01-07T08:24:41.316Z,101720.25
2023-01-07T08:25:51.745Z,101724.05
2023-01-07T08:26:58.268Z,101721.21
2023-01-07T08:28:02.267Z,101717.02
2023-01-07T08:29:05.386Z,101714.21
2023-01-07T08:30:11.861Z,101721.89
2023-01-07T08:31:15.028Z,101721.13
2023-01-07T08:32:18.072Z,101720.91
2023-01-07T08:33:21.094Z,101723.77
2023-01-07T08:34:25.082Z,101720.55
2023-01-07T08:35:28.483Z,101717.41
2023-01-07T08:36:33.728Z,101718.05
2023-01-07T08:37:36.759Z,101716.21
2023-01-07T08:38:40.084Z,101718.84
2023-01-07T08:39:43.098Z,101719.73
2023-01-07T08:40:46.092Z,101714.04
2023-01-07T08:41:49.312Z,101713.84
2023-01-07T08:42:52.438Z,101715.91
2023-01-07T08:43:55.454Z,101719.91
2023-01-07T08:44:58.559Z,101722.89
2023-01-07T08:46:01.886Z,101724.77
2023-01-07T08:47:05.008Z,101727.97
2023-01-07T08:48:08.189Z,101724.76
2023-01-07T08:49:11.633Z,101726.41
2023-01-07T08:50:14.830Z,101724.34
2023-01-07T08:51:17.865Z,101725.85
2023-01-07T08:52:21.828Z,101725.61
2023-01-07T08:53:25.678Z,101726.34
2023-01-07T08:54:28.666Z,101730.33
2023-01-07T08:55:34.749Z,101732.59
2023-01-07T08:56:37.952Z,101732.21
2023-01-07T08:57:40.857Z,101730.96
2023-01-07T08:58:43.945Z,101733.78
2023-01-07T08:59:50.867Z,101733.61
2023-01-07T09:00:54.208Z,101727.73
2023-01-07T09:01:59.888Z,101729.11
2023-01-07T09:03:10.410Z,101731.33
2023-01-07T09:04:13.545Z,101730.15
2023-01-07T09:05:17.242Z,101727.45
2023-01-07T09:06:22.045Z,101724.22
2023-01-07T09:07:25.113Z,101728.02
2023-01-07T09:08:28.291Z,101723.59
2023-01-07T09:09:31.409Z,101727.33
2023-01-07T09:10:34.317Z,101725.36
2023-01-07T09:11:37.901Z,101723.85
2023-01-07T09:12:41.028Z,101726.17
2023-01-07T09:13:44.465Z,101727.24
2023-01-07T09:14:47.603Z,101729.16
2023-01-07T09:15:50.649Z,101727.95
2023-01-07T09:16:53.807Z,101730.46
2023-01-07T09:17:56.928Z,101729.64
2023-01-07T09:18:59.901Z,101726.27
2023-01-07T09:20:03.900Z,101726.41
2023-01-07T09:21:07.880Z,101730.56
2023-01-07T09:22:11.242Z,101737.27
2023-01-07T09:23:14.248Z,101740.96
2023-01-07T09:24:17.834Z,101745.30
2023-01-07T09:25:20.865Z,101746.08
2023-01-07T09:26:23.765Z,101749.76
2023-01-07T09:27:26.911Z,101745.13
2023-01-07T09:28:30.032Z,101743.59
2023-01-07T09:29:33.169Z,101743.89
2023-01-07T09:30:37.541Z,101743.16
2023-01-07T09:31:40.765Z,101745.61
2023-01-07T09:32:44.481Z,101746.86
2023-01-07T09:33:47.587Z,101748.87
2023-01-07T09:34:50.795Z,101752.67
2023-01-07T09:35:53.955Z,101753.99
2023-01-07T09:36:56.901Z,101757.23
2023-01-07T09:37:59.982Z,101755.33
2023-01-07T09:39:03.624Z,101755.67
2023-01-07T09:40:31.102Z,101750.66
2023-01-07T09:42:09.135Z,101754.29
2023-01-07T09:43:15.194Z,101752.26
2023-01-07T09:44:21.182Z,101751.86
2023-01-07T09:45:34.840Z,101746.39
2023-01-07T09:46:38.090Z,101749.38
2023-01-07T09:47:45.939Z,101748.86
2023-01-07T09:48:54.292Z,101750.15
2023-01-07T09:50:01.925Z,101753.16
2023-01-07T09:51:07.220Z,101756.35
2023-01-07T09:52:21.465Z,101757.63
2023-01-07T09:53:31.030Z,101760.60
2023-01-07T09:54:36.843Z,101756.53
2023-01-07T09:56:09.890Z,101753.04
2023-01-07T09:57:06.333Z,101752.83
2023-01-07T09:58:14.731Z,101752.39
2023-01-07T09:59:19.063Z,101754.77
2023-01-07T10:00:24.255Z,101752.36
2023-01-07T10:01:42.246Z,101750.64
2023-01-07T10:03:01.809Z,101749.75
2023-01-07T10:04:29.948Z,101748.63
2023-01-07T10:06:01.769Z,101746.69
2023-01-07T10:07:22.976Z,101745.81
2023-01-07T10:08:53.581Z,101748.29
2023-01-07T10:10:21.132Z,101748.39
2023-01-07T10:11:32.727Z,101750.19
2023-01-07T10:13:10.218Z,101751.23
2023-01-07T10:14:45.511Z,101749.08
2023-01-07T10:16:08.601Z,101747.89
2023-01-07T10:17:23.624Z,101747.16
2023-01-07T10:19:00.556Z,101745.92
2023-01-07T10:20:22.090Z,101745.23
2023-01-07T10:21:38.722Z,101745.02
2023-01-07T10:23:07.953Z,101745.10
2023-01-07T10:24:21.778Z,101741.70
2023-01-07T10:25:32.952Z,101734.27
2023-01-07T10:26:45.020Z,101734.13
2023-01-07T10:27:49.756Z,101727.96
2023-01-07T10:29:00.175Z,101726.30
2023-01-07T10:30:11.620Z,101726.02
2023-01-07T10:31:27.127Z,101725.37
2023-01-07T10:32:33.747Z,101724.36
2023-01-07T10:33:36.771Z,101719.50
2023-01-07T10:34:45.271Z,101722.70
2023-01-07T10:35:54.763Z,101725.90
2023-01-07T10:37:23.725Z,101721.66
2023-01-07T10:38:33.325Z,101720.72
2023-01-07T10:39:50.690Z,101717.22
2023-01-07T10:41:00.564Z,101714.90
2023-01-07T10:42:29.114Z,101713.44
2023-01-07T10:44:02.956Z,101711.68
2023-01-07T10:45:43.502Z,101707.88
2023-01-07T10:46:57.921Z,101705.84
2023-01-07T10:48:19.706Z,101701.88
2023-01-07T10:50:00.388Z,101700.05
2023-01-07T10:51:29.589Z,101696.02
2023-01-07T10:52:38.304Z,101699.00
2023-01-07T10:53:44.276Z,101694.09
2023-01-07T10:55:09.259Z,101696.66
2023-01-07T10:56:36.731Z,101696.09
2023-01-07T10:57:41.018Z,101696.58
2023-01-07T10:58:46.808Z,101699.73
2023-01-07T10:59:52.731Z,101698.71
2023-01-07T11:00:56.292Z,101698.59
2023-01-07T11:02:00.508Z,101704.05
2023-01-07T11:03:03.882Z,101700.15
2023-01-07T11:04:13.211Z,101700.89
2023-01-07T11:05:21.052Z,101698.92
2023-01-07T11:06:53.862Z,101698.98
2023-01-07T11:08:01.589Z,101695.09
2023-01-07T11:09:09.032Z,101695.02
2023-01-07T11:10:21.484Z,101693.79
2023-01-07T11:11:25.038Z,101692.77
2023-01-07T11:12:52.716Z,101693.20
2023-01-07T11:14:02.108Z,101691.72
2023-01-07T11:15:28.685Z,101690.15
2023-01-07T11:16:38.496Z,101688.55
2023-01-07T11:18:02.869Z,101687.83
2023-01-07T11:19:08.729Z,101688.40
2023-01-07T11:20:12.658Z,101688.58
2023-01-07T11:21:43.270Z,101690.18
2023-01-07T11:22:47.836Z,101687.19
2023-01-07T11:23:50.995Z,101682.00
2023-01-07T11:24:55.420Z,101681.13
2023-01-07T11:26:09.180Z,101675.34
2023-01-07T11:27:17.661Z,101672.92
2023-01-07T11:28:27.251Z,101676.45
2023-01-07T11:29:37.457Z,101673.86
2023-01-07T11:30:40.457Z,101673.00
2023-01-07T11:32:02.676Z,101671.82
2023-01-07T11:33:07.127Z,101672.30
2023-01-07T11:34:23.739Z,101672.75
2023-01-07T11:35:30.373Z,101674.98
2023-01-07T11:36:41.589Z,101673.04
2023-01-07T11:37:47.882Z,101666.55
2023-01-07T11:38:50.816Z,101662.98
2023-01-07T11:39:59.547Z,101661.81
2023-01-07T11:41:06.501Z,101661.70
2023-01-07T11:42:37.707Z,101660.20
2023-01-07T11:43:40.886Z,101658.95
2023-01-07T11:44:43.802Z,101664.25
2023-01-07T11:46:19.323Z,101661.30
2023-01-07T11:47:19.700Z,101660.68
2023-01-07T11:48:31.575Z,101664.06
2023-01-07T11:49:44.289Z,101661.59
2023-01-07T11:50:56.499Z,101658.41
2023-01-07T11:51:59.632Z,101657.27
2023-01-07T11:53:32.116Z,101659.85
2023-01-07T11:54:35.092Z,101656.60
2023-01-07T11:55:38.069Z,101655.44
2023-01-07T11:56:41.010Z,101658.27
2023-01-07T11:57:55.303Z,101657.20
2023-01-07T11:59:15.764Z,101655.90
2023-01-07T12:00:19.216Z,101658.11
2023-01-07T12:01:24.012Z,101656.13
2023-01-07T12:02:27.555Z,101652.95
2023-01-07T12:03:31.690Z,101653.60
2023-01-07T12:04:37.002Z,101657.29
2023-01-07T12:05:45.088Z,101659.77
2023-01-07T12:06:50.963Z,101659.14
2023-01-07T12:07:56.792Z,101663.30
2023-01-07T12:09:05.647Z,101658.36
2023-01-07T12:10:25.707Z,101662.84
2023-01-07T12:11:34.708Z,101660.85
2023-01-07T12:12:43.952Z,101662.65
2023-01-07T12:13:53.025Z,101661.42
2023-01-07T12:14:56.863Z,101665.33
2023-01-07T12:16:06.116Z,101662.74
2023-01-07T12:17:20.195Z,101662.91
2023-01-07T12:18:41.168Z,101665.94
2023-01-07T12:19:47.287Z,101666.07
2023-01-07T12:21:20.799Z,101662.83
2023-01-07T12:22:35.801Z,101662.83
2023-01-07T12:24:08.069Z,101661.55
2023-01-07T12:25:36.102Z,101660.55
2023-01-07T12:26:51.248Z,101661.38
2023-01-07T12:28:11.169Z,101660.89
2023-01-07T12:29:27.204Z,101662.35
2023-01-07T12:30:52.145Z,101666.16
2023-01-07T12:32:13.353Z,101664.02
2023-01-07T12:33:29.685Z,101661.80
2023-01-07T12:34:51.241Z,101660.48
2023-01-07T12:35:59.404Z,101658.92
2023-01-07T12:37:10.186Z,101659.67
2023-01-07T12:38:31.853Z,101655.71
2023-01-07T12:39:38.611Z,101656.00
2023-01-07T12:40:57.416Z,101654.40
2023-01-07T12:42:08.886Z,101655.58
2023-01-07T12:43:37.083Z,101654.16
2023-01-07T12:44:46.397Z,101654.44
2023-01-07T12:46:01.115Z,101654.71
2023-01-07T12:47:31.119Z,101651.34
2023-01-07T12:48:55.124Z,101651.58
2023-01-07T12:50:16.451Z,101655.00
2023-01-07T12:51:49.222Z,101658.58
2023-01-07T12:53:02.117Z,101662.08
2023-01-07T12:54:14.700Z,101660.41
2023-01-07T12:55:22.735Z,101660.16
2023-01-07T12:56:40.989Z,101658.50